Terminal Aerodrome Forecast
Issued by NWS Milwaukee/Sullivan, WI

Home | Current Version | Previous Version | Text Only | Print | Product List | Glossary On
Versions: 1 2 3 4 5 6 7 8 9 10 11 12 13 14 15 16 17 18 19 20 21 22 23 24 25 26 27 28 29 30 31 32 33 34 35 36 37 38 39 40 41 42 43 44 45 46 47 48 49 50
000
FTUS43 KMKX 260314 AAA
TAFMKE
TAF AMD
KMKE 260314Z 2603/2706 21007KT P6SM SCT250
     FM261000 21008KT 5SM BR SCT200
     FM261400 21009KT 6SM BR SCT015 BKN250
     FM261600 18010KT P6SM SCT040 BKN110
     FM261800 17011KT 6SM SHRA BR VCTS SCT050CB OVC080
     FM262000 16010KT 6SM SHRA BR BKN008
     FM270100 20008KT 6SM SHRA BR BKN025=

USA.gov is the U.S. government's official web portal to all federal, state and local government web resources and services.